Terminal Aerodrome Forecast
Issued by NWS

Home | Current Version | Previous Version | Text Only | Print | Product List | Glossary On
Versions: 1 2 3 4 5 6 7 8 9 10 11 12 13 14 15 16 17 18 19 20 21 22
000
FTPA31 PHFO 271700
TAFJRF
TAF
PHJR 271734Z 2718/2818 VRB05KT P6SM FEW050 SCT200
     FM272000 25008KT P6SM VCSH SCT025 BKN040 BKN100
     FM280800 VRB04KT P6SM SCT025 SCT040=

USA.gov is the U.S. government's official web portal to all federal, state and local government web resources and services.